Flight Track Log - Related Links

Times and Time Zones

All times are in EDT time to prevent confusion due to time zone crossing. See the JUS327 flight status page for this flight to view local times or setup timezone preferences in your user account.

Time Position Orientation Groundspeed Altitude Reporting Facility
EDT Latitude Longitude Course Direction KTS MPH feet Rate Location/Type
Fri 06:56:32 PM 33.1497 -87.6786 217° Southwest 203 234 4,300  Level Atlanta Center
Fri 06:57:03 PM 33.1261 -87.7000 217° Southwest 236 272 5,000 545 Climbing Atlanta Center
Fri 06:57:38 PM 33.0983 -87.7258 218° Southwest 259 298 4,900 178 Descending Atlanta Center
Fri 06:58:44 PM 33.0339 -87.7975 223° Southwest 268 308 5,300 2,315 Climbing Memphis Center
Fri 06:59:45 PM 32.9936 -87.8803 240° Southwest 278 320 9,800 2,975 Climbing Memphis Center
Fri 07:00:45 PM 32.9411 -87.9661 234° Southwest 299 344 11,300 2,118 Climbing Memphis Center
Fri 07:01:44 PM 32.8844 -88.0542 233° Southwest 326 375 14,000 2,571 Climbing Memphis Center
Fri 07:02:44 PM 32.8253 -88.1422 231° Southwest 342 394 16,400 2,250 Climbing Memphis Center
Fri 07:03:44 PM 32.7664 -88.2325 232° Southwest 349 402 18,500 1,934 Climbing Memphis Center
Fri 07:04:45 PM 32.7033 -88.3231 230° Southwest 349 402 20,300 1,686 Climbing Memphis Center
Fri 07:05:45 PM 32.6442 -88.4133 232° Southwest 354 407 21,900 1,613 Climbing Memphis Center
Fri 07:06:44 PM 32.5831 -88.5058 232° Southwest 359 413 23,500 1,500 Climbing Memphis Center
Fri 07:07:45 PM 32.5281 -88.6103 238° Southwest 370 426 24,900 1,400 Climbing Memphis Center
Fri 07:08:44 PM 32.4942 -88.7244 251° West 370 426 26,300 1,210 Climbing Memphis Center
Fri 07:09:44 PM 32.4517 -88.8383 246° West 375 432 27,300 1,190 Climbing Memphis Center
Fri 07:10:45 PM 32.4031 -88.9500 243° Southwest 380 437 28,700 1,500 Climbing Memphis Center
Fri 07:11:44 PM 32.3583 -89.0611 245° Southwest 385 443 30,300 1,563 Climbing Memphis Center
Fri 07:12:44 PM 32.3156 -89.1700 245° Southwest 385 443 31,800 1,550 Climbing Memphis Center
Fri 07:13:44 PM 32.2706 -89.2786 244° Southwest 379 436 33,400 1,091 Climbing Memphis Center
Fri 07:14:45 PM 32.2275 -89.3847 244° Southwest 373 429 34,000 300 Climbing Memphis Center
Fri 07:15:44 PM 32.1803 -89.4883 242° Southwest 368 423 34,000  Level Memphis Center
Fri 07:16:45 PM 32.1372 -89.5967 245° Southwest 368 423 34,000  Level Memphis Center
Fri 07:17:45 PM 32.0939 -89.7050 245° Southwest 362 417 34,000  Level Memphis Center
Fri 07:18:44 PM 32.0506 -89.8133 245° Southwest 362 417 34,000  Level Memphis Center
Fri 07:19:44 PM 32.0053 -89.9189 243° Southwest 362 417 34,000  Level Memphis Center
Fri 07:20:44 PM 31.9594 -90.0269 243° Southwest 362 417 34,000 -33 Level Memphis Center
Fri 07:22:44 PM 31.8767 -90.2311 245° Southwest 370 426 33,900 -33 Descending Houston Center
Fri 07:23:46 PM 31.8322 -90.3378 244° Southwest 367 422 33,900  Level Houston Center
Fri 07:24:48 PM 31.7864 -90.4444 243° Southwest 367 422 33,900  Level Houston Center
Fri 07:25:50 PM 31.7325 -90.5717 244° Southwest 367 422 33,900  Level Houston Center
Fri 07:26:52 PM 31.6875 -90.6800 244° Southwest 372 428 33,900  Level Houston Center
Fri 07:27:54 PM 31.6433 -90.7858 244° Southwest 367 422 33,900  Level Houston Center
Fri 07:28:57 PM 31.5989 -90.8942 244° Southwest 370 426 33,900  Level Houston Center
Fri 07:29:59 PM 31.5528 -91.0025 243° Southwest 373 429 33,900 48 Level Houston Center
Fri 07:31:01 PM 31.5025 -91.1153 242° Southwest 375 432 34,000 48 Climbing Houston Center
Fri 07:32:03 PM 31.4569 -91.2247 244° Southwest 375 432 34,000  Level Houston Center
Fri 07:33:05 PM 31.4019 -91.3547 244° Southwest 374 430 34,000  Level Houston Center
Fri 07:34:07 PM 31.3547 -91.4639 243° Southwest 376 433 34,000  Level Houston Center
Fri 07:35:09 PM 31.3072 -91.5719 243° Southwest 375 432 34,000  Level Houston Center
Fri 07:36:11 PM 31.2597 -91.6808 243° Southwest 376 433 34,000  Level Houston Center
Fri 07:37:13 PM 31.2125 -91.7897 243° Southwest 376 433 34,000  Level Houston Center
Fri 07:38:15 PM 31.1650 -91.8989 243° Southwest 376 433 34,000  Level Houston Center
Fri 07:39:17 PM 31.1089 -92.0306 244° Southwest 377 434 34,000 -48 Level Houston Center
Fri 07:40:19 PM 31.0664 -92.1281 243° Southwest 380 437 33,900 -48 Descending Houston Center
Fri 07:41:21 PM 31.0178 -92.2367 242° Southwest 380 437 33,900 48 Level Houston Center
Fri 07:42:23 PM 30.9622 -92.3619 243° Southwest 383 441 34,000 48 Climbing Houston Center
Fri 07:43:25 PM 30.9089 -92.4700 240° Southwest 382 440 34,000  Level Houston Center
Fri 07:44:27 PM 30.8603 -92.5825 243° Southwest 386 444 34,000  Level Houston Center
Fri 07:45:29 PM 30.8150 -92.6956 245° Southwest 384 442 34,000  Level Houston Center
Fri 07:46:31 PM 30.7664 -92.8075 243° Southwest 386 444 34,000 -48 Level Houston Center
Fri 07:47:33 PM 30.7139 -92.9231 242° Southwest 390 449 33,900 -48 Descending Houston Center
Fri 07:48:35 PM 30.6558 -93.0578 243° Southwest 390 449 33,900  Level Houston Center
Fri 07:49:37 PM 30.6072 -93.1697 243° Southwest 391 450 33,900  Level Houston Center
Fri 07:50:39 PM 30.5553 -93.2803 241° Southwest 391 450 33,900  Level Houston Center
Fri 07:51:41 PM 30.5067 -93.3919 243° Southwest 392 451 33,900 48 Level Houston Center
Fri 07:52:43 PM 30.4564 -93.5025 242° Southwest 391 450 34,000  Climbing Houston Center
Fri 07:53:45 PM 30.3983 -93.6311 242° Southwest 392 451 33,900 -48 Descending Houston Center
Fri 07:54:47 PM 30.3481 -93.7431 243° Southwest 394 453 33,900  Level Houston Center
Fri 07:55:48 PM 30.2967 -93.8547 242° Southwest 395 455 33,900  Level Houston Center
Fri 07:56:50 PM 30.2456 -93.9656 242° Southwest 393 452 33,900  Level Houston Center
Fri 07:58:00 PM 30.1925 -94.0845 243° Southwest  Level FlightAware Approximate
Fri 07:58:54 PM 30.1317 -94.2131 243° Southwest 397 457 33,900  Level Houston Center
Fri 07:59:56 PM 30.0803 -94.3253 242° Southwest 396 456 33,900  Level Houston Center
Fri 08:00:58 PM 30.0292 -94.4375 242° Southwest 395 455 33,900 48 Level Houston Center
Fri 08:02:00 PM 29.9772 -94.5439 241° Southwest 396 456 34,000 48 Climbing Houston Center
Fri 08:03:02 PM 29.9247 -94.6558 242° Southwest 397 457 34,000  Level Houston Center
Fri 08:04:04 PM 29.8625 -94.7903 242° Southwest 397 457 34,000  Level Houston Center
Fri 08:05:05 PM 29.8103 -94.9031 242° Southwest 400 460 34,000  Level Houston Center
Fri 08:06:07 PM 29.7581 -95.0144 242° Southwest 398 458 34,000 -48 Level Houston Center
Fri 08:07:09 PM 29.7042 -95.1331 242° Southwest 400 460 33,900 -48 Descending Houston Center
Fri 08:08:11 PM 29.6508 -95.2450 241° Southwest 401 461 33,900 48 Level Houston Center
Fri 08:09:13 PM 29.5908 -95.3650 240° Southwest 401 461 34,000 48 Climbing Houston Center
Fri 08:10:15 PM 29.5375 -95.4758 241° Southwest 399 459 34,000  Level Houston Center
Fri 08:11:16 PM 29.4856 -95.5872 242° Southwest 397 457 34,000  Level Houston Center
Fri 08:12:18 PM 29.4322 -95.6989 241° Southwest 399 459 34,000  Level Houston Center
Fri 08:13:20 PM 29.3783 -95.8100 241° Southwest 399 459 34,000  Level Houston Center
Fri 08:14:22 PM 29.3136 -95.9428 241° Southwest 398 458 34,000 -48 Level Houston Center
Fri 08:15:24 PM 29.2681 -96.0381 241° Southwest 400 460 33,900 -48 Descending Houston Center
Fri 08:16:26 PM 29.2031 -96.1719 241° Southwest 400 460 33,900  Level Houston Center
Fri 08:17:28 PM 29.1489 -96.2831 241° Southwest 399 459 33,900  Level Houston Center
Fri 08:18:29 PM 29.0950 -96.3939 241° Southwest 399 459 33,900  Level Houston Center
Fri 08:19:31 PM 29.0403 -96.5053 241° Southwest 399 459 33,900  Level Houston Center
Fri 08:20:33 PM 28.9856 -96.6186 241° Southwest 402 463 33,900  Level Houston Center
Fri 08:21:35 PM 28.9317 -96.7300 241° Southwest 401 461 33,900  Level Houston Center
Fri 08:22:37 PM 28.8775 -96.8417 241° Southwest 399 459 33,900  Level Houston Center
Fri 08:23:38 PM 28.8219 -96.9519 240° Southwest 399 459 33,900  Level Houston Center
Fri 08:24:40 PM 28.7558 -97.0853 241° Southwest 401 461 33,900  Level Houston Center
Fri 08:25:42 PM 28.7006 -97.1964 240° Southwest 402 463 33,900  Level Houston Center
Fri 08:26:44 PM 28.6444 -97.3083 240° Southwest 404 465 33,900  Level Houston Center
Fri 08:27:46 PM 28.5886 -97.4214 241° Southwest 408 470 33,900  Level Houston Center
Fri 08:28:47 PM 28.5339 -97.5336 241° Southwest 406 467 33,900  Level Houston Center
Fri 08:29:49 PM 28.4769 -97.6453 240° Southwest 407 468 33,900 -48 Level Houston Center
Fri 08:30:51 PM 28.4208 -97.7583 241° Southwest 409 471 33,800 -484 Descending Houston Center
Fri 08:31:53 PM 28.3508 -97.8925 239° Southwest 414 476 32,900 -823 Descending Houston Center
Fri 08:32:55 PM 28.2914 -98.0075 240° Southwest 420 483 32,100 -774 Descending Houston Center
Fri 08:33:57 PM 28.2353 -98.1183 240° Southwest 423 487 31,300 -1,161 Descending Houston Center
Fri 08:34:59 PM 28.1761 -98.2350 240° Southwest 427 491 29,700 -1,854 Descending Houston Center
Fri 08:36:00 PM 28.1164 -98.3519 240° Southwest 429 494 27,500 -2,390 Descending Houston Center
Fri 08:37:02 PM 28.0472 -98.4906 241° Southwest 425 489 24,800 -2,613 Descending Houston Center
Fri 08:38:04 PM 27.9972 -98.5944 241° Southwest 385 443 22,100 -2,613 Descending Houston Center
Fri 08:39:06 PM 27.9494 -98.6889 240° Southwest 353 406 19,400 -2,661 Descending Houston Center
Fri 08:40:08 PM 27.9019 -98.7767 239° Southwest 333 383 16,600 -2,878 Descending Houston Center
Fri 08:41:09 PM 27.8572 -98.8614 239° Southwest 319 367 13,500 -2,927 Descending Houston Center
Fri 08:42:11 PM 27.8103 -98.9467 238° Southwest 321 369 10,600 -2,323 Descending Houston Center
Fri 08:43:13 PM 27.7644 -99.0408 241° Southwest 298 343 8,700 -1,935 Descending Houston Center
Fri 08:44:15 PM 27.7261 -99.1136 239° Southwest 281 323 6,600 -2,032 Descending Houston Center
Fri 08:45:17 PM 27.6881 -99.1875 240° Southwest 276 318 4,500 -1,659 Descending Houston Center
Fri 08:46:18 PM 27.6506 -99.2603 240° Southwest 274 315 3,200 -927 Descending Houston Center
Fri 08:47:20 PM 27.6353 -99.3344 257° West 259 298 2,600 -339 Descending Houston Center
Fri 08:48:22 PM 27.6328 -99.4250 268° West 249 287 2,500 -488 Descending Houston Center
Fri 08:49:23 PM 27.6017 -99.4600 225° Southwest 204 235 1,600 -878 Descending Houston Center
Fri 08:50:25 PM 27.5686 -99.4617 183° South 151 174 700 -871 Descending Houston Center

Login

Don't have an account? Register now (free) for customized features, flight alerts, and more!